BAW609 EGLL-LIPZ
Flight info
| Callsign | BAW609 |
|---|---|
| Flight time | 1h 37m |
| Altitude | 37000 |
| Route | DET L6 DVR UL9 KONAN UL607 KOK M150 KRH DCT BATUB M738 NATAG/N0463F290 DCT LORLO DCT UNTAD DCT ADOSA L612 ALBET |
| Aircraft | B738/M-SDE2E3FGHIRWXY/LB1 |
Departure
| Time | 2026-05-06 16:41 |
|---|---|
| Airport | London Heathrow Airport (EGLL) |
Arrival
| Time | 2026-05-06 18:19 |
|---|---|
| Airport | Venice Marco Polo Airport (LIPZ) |
| Time | Latitude | Longitude | Altitude | Speed | Heading |
|---|---|---|---|---|---|
| 2026-05-06 16:14 | 51.47212 | -0.48003 | 92 ft | 0 kts | 269° |
| 2026-05-06 16:32 | 51.47212 | -0.47997 | 92 ft | 2 kts | 269° |
| 2026-05-06 16:32 | 51.47214 | -0.47972 | 92 ft | 3 kts | 257° |
| 2026-05-06 16:33 | 51.47221 | -0.47942 | 92 ft | 3 kts | 240° |
| 2026-05-06 16:33 | 51.47233 | -0.47917 | 92 ft | 3 kts | 224° |
| 2026-05-06 16:33 | 51.47244 | -0.47903 | 92 ft | 0 kts | 214° |
| 2026-05-06 16:34 | 51.47242 | -0.47905 | 92 ft | 1 kts | 211° |
| 2026-05-06 16:35 | 51.47221 | -0.47906 | 92 ft | 6 kts | 167° |
| 2026-05-06 16:35 | 51.47151 | -0.47870 | 92 ft | 10 kts | 172° |
| 2026-05-06 16:35 | 51.47086 | -0.47866 | 92 ft | 9 kts | 181° |
| 2026-05-06 16:35 | 51.47026 | -0.47866 | 92 ft | 8 kts | 181° |
| 2026-05-06 16:36 | 51.46972 | -0.47868 | 92 ft | 7 kts | 180° |
| 2026-05-06 16:36 | 51.46926 | -0.47868 | 92 ft | 7 kts | 180° |
| 2026-05-06 16:36 | 51.46880 | -0.47868 | 92 ft | 8 kts | 176° |
| 2026-05-06 16:36 | 51.46831 | -0.47865 | 92 ft | 6 kts | 179° |
| 2026-05-06 16:37 | 51.46784 | -0.47865 | 92 ft | 6 kts | 181° |
| 2026-05-06 16:37 | 51.46743 | -0.47866 | 92 ft | 7 kts | 181° |
| 2026-05-06 16:37 | 51.46694 | -0.47869 | 92 ft | 8 kts | 187° |
| 2026-05-06 16:37 | 51.46658 | -0.47904 | 92 ft | 5 kts | 241° |
| 2026-05-06 16:38 | 51.46652 | -0.47965 | 92 ft | 7 kts | 268° |
| 2026-05-06 16:38 | 51.46652 | -0.48057 | 92 ft | 9 kts | 270° |
| 2026-05-06 16:38 | 51.46652 | -0.48143 | 92 ft | 6 kts | 262° |
| 2026-05-06 16:38 | 51.46642 | -0.48185 | 92 ft | 3 kts | 233° |
| 2026-05-06 16:39 | 51.46626 | -0.48203 | 92 ft | 2 kts | 201° |
| 2026-05-06 16:39 | 51.46605 | -0.48209 | 92 ft | 9 kts | 187° |
| 2026-05-06 16:39 | 51.46536 | -0.48212 | 92 ft | 9 kts | 175° |
| 2026-05-06 16:39 | 51.46496 | -0.48182 | 92 ft | 4 kts | 134° |
| 2026-05-06 16:40 | 51.46483 | -0.48138 | 92 ft | 5 kts | 98° |
| 2026-05-06 16:40 | 51.46483 | -0.48105 | 92 ft | 0 kts | 89° |
| 2026-05-06 16:40 | 51.46478 | -0.47908 | 92 ft | 52 kts | 91° |
| 2026-05-06 16:41 | 51.46484 | -0.46873 | 92 ft | 133 kts | 89° |
| 2026-05-06 16:41 | 51.46483 | -0.45068 | 418 ft | 169 kts | 87° |
| 2026-05-06 16:41 | 51.46521 | -0.43238 | 1508 ft | 165 kts | 85° |
| 2026-05-06 16:41 | 51.46511 | -0.41320 | 2182 ft | 187 kts | 98° |
| 2026-05-06 16:42 | 51.45873 | -0.39386 | 2727 ft | 208 kts | 129° |
| 2026-05-06 16:42 | 51.44890 | -0.37559 | 3417 ft | 225 kts | 129° |
| 2026-05-06 16:42 | 51.43914 | -0.35441 | 4056 ft | 244 kts | 116° |
| 2026-05-06 16:42 | 51.43328 | -0.32811 | 4788 ft | 256 kts | 102° |
| 2026-05-06 16:43 | 51.43071 | -0.30959 | 5434 ft | 259 kts | 100° |
| 2026-05-06 16:43 | 51.42748 | -0.28250 | 5865 ft | 270 kts | 99° |
| 2026-05-06 16:43 | 51.42359 | -0.25307 | 6023 ft | 273 kts | 100° |
| 2026-05-06 16:43 | 51.41953 | -0.22362 | 6170 ft | 269 kts | 101° |
| 2026-05-06 16:44 | 51.41553 | -0.19448 | 6041 ft | 272 kts | 100° |
| 2026-05-06 16:44 | 51.41163 | -0.16471 | 6006 ft | 269 kts | 101° |
| 2026-05-06 16:44 | 51.40733 | -0.13562 | 5935 ft | 268 kts | 102° |
| 2026-05-06 16:44 | 51.40312 | -0.10679 | 5976 ft | 266 kts | 102° |
| 2026-05-06 16:45 | 51.39895 | -0.07755 | 5970 ft | 272 kts | 101° |
| 2026-05-06 16:45 | 51.39489 | -0.04820 | 6047 ft | 266 kts | 101° |
| 2026-05-06 16:45 | 51.39101 | -0.01883 | 5969 ft | 272 kts | 101° |
| 2026-05-06 16:45 | 51.38708 | 0.01035 | 6040 ft | 269 kts | 101° |
| 2026-05-06 16:46 | 51.38307 | 0.03985 | 5972 ft | 270 kts | 101° |
| 2026-05-06 16:46 | 51.37887 | 0.06911 | 5919 ft | 268 kts | 102° |
| 2026-05-06 16:46 | 51.37452 | 0.09787 | 6117 ft | 274 kts | 100° |
| 2026-05-06 16:46 | 51.37048 | 0.12764 | 6074 ft | 274 kts | 101° |
| 2026-05-06 16:47 | 51.36638 | 0.15757 | 6025 ft | 271 kts | 101° |
| 2026-05-06 16:47 | 51.36241 | 0.18697 | 6000 ft | 268 kts | 101° |
| 2026-05-06 16:47 | 51.35834 | 0.21561 | 6010 ft | 268 kts | 102° |
| 2026-05-06 16:47 | 51.35422 | 0.24511 | 6058 ft | 267 kts | 100° |
| 2026-05-06 16:48 | 51.35022 | 0.27386 | 6123 ft | 270 kts | 102° |
| 2026-05-06 16:48 | 51.34595 | 0.30355 | 6051 ft | 270 kts | 101° |
| 2026-05-06 16:48 | 51.34192 | 0.33239 | 6017 ft | 268 kts | 101° |
| 2026-05-06 16:48 | 51.33781 | 0.36178 | 6003 ft | 268 kts | 101° |
| 2026-05-06 16:49 | 51.33374 | 0.39043 | 5997 ft | 267 kts | 101° |
| 2026-05-06 16:49 | 51.32953 | 0.41980 | 5998 ft | 268 kts | 101° |
| 2026-05-06 16:49 | 51.32539 | 0.44881 | 5990 ft | 268 kts | 101° |
| 2026-05-06 16:49 | 51.32122 | 0.47780 | 5992 ft | 268 kts | 101° |
| 2026-05-06 16:50 | 51.31705 | 0.50680 | 5987 ft | 268 kts | 101° |
| 2026-05-06 16:50 | 51.31293 | 0.53547 | 5988 ft | 268 kts | 101° |
| 2026-05-06 16:50 | 51.30870 | 0.56479 | 5986 ft | 268 kts | 101° |
| 2026-05-06 16:50 | 51.30591 | 0.58404 | 5983 ft | 268 kts | 101° |
| 2026-05-06 16:51 | 51.29958 | 0.62292 | 6636 ft | 270 kts | 104° |
| 2026-05-06 16:51 | 51.29435 | 0.65126 | 7713 ft | 270 kts | 104° |
| 2026-05-06 16:51 | 51.28898 | 0.68098 | 8537 ft | 280 kts | 105° |
| 2026-05-06 16:51 | 51.28349 | 0.71061 | 9473 ft | 282 kts | 105° |
| 2026-05-06 16:52 | 51.27793 | 0.74089 | 10395 ft | 287 kts | 112° |
| 2026-05-06 16:52 | 51.27197 | 0.77243 | 10839 ft | 307 kts | 113° |
| 2026-05-06 16:52 | 51.26557 | 0.80607 | 11287 ft | 325 kts | 112° |
| 2026-05-06 16:52 | 51.25900 | 0.84145 | 11891 ft | 337 kts | 112° |
| 2026-05-06 16:53 | 51.25215 | 0.87774 | 12540 ft | 349 kts | 111° |
| 2026-05-06 16:53 | 51.24500 | 0.91638 | 12686 ft | 375 kts | 111° |
| 2026-05-06 16:53 | 51.23786 | 0.95613 | 13794 ft | 367 kts | 110° |
| 2026-05-06 16:53 | 51.23071 | 0.99569 | 14629 ft | 372 kts | 111° |
| 2026-05-06 16:54 | 51.22337 | 1.03517 | 15574 ft | 373 kts | 111° |
| 2026-05-06 16:54 | 51.21576 | 1.07550 | 16095 ft | 386 kts | 111° |
| 2026-05-06 16:54 | 51.20798 | 1.11673 | 16886 ft | 388 kts | 111° |
| 2026-05-06 16:54 | 51.20023 | 1.15788 | 17844 ft | 387 kts | 110° |
| 2026-05-06 16:55 | 51.19257 | 1.19934 | 18511 ft | 396 kts | 111° |
| 2026-05-06 16:55 | 51.18453 | 1.24216 | 18948 ft | 406 kts | 111° |
| 2026-05-06 16:55 | 51.17641 | 1.28474 | 20109 ft | 395 kts | 111° |
| 2026-05-06 16:55 | 51.16831 | 1.32651 | 20958 ft | 397 kts | 112° |
| 2026-05-06 16:56 | 51.16198 | 1.37002 | 21443 ft | 410 kts | 100° |
| 2026-05-06 16:56 | 51.16014 | 1.41541 | 22239 ft | 411 kts | 96° |
| 2026-05-06 16:56 | 51.15825 | 1.46160 | 22608 ft | 422 kts | 98° |
| 2026-05-06 16:56 | 51.15580 | 1.50863 | 23094 ft | 428 kts | 98° |
| 2026-05-06 16:57 | 51.15344 | 1.55586 | 23855 ft | 427 kts | 98° |
| 2026-05-06 16:57 | 51.15105 | 1.60320 | 24435 ft | 429 kts | 98° |
| 2026-05-06 16:57 | 51.14866 | 1.65055 | 25149 ft | 428 kts | 98° |
| 2026-05-06 16:57 | 51.14629 | 1.69845 | 25434 ft | 439 kts | 98° |
| 2026-05-06 16:58 | 51.14470 | 1.73065 | 25714 ft | 442 kts | 98° |
| 2026-05-06 16:58 | 51.14225 | 1.77967 | 26168 ft | 446 kts | 98° |
| 2026-05-06 16:58 | 51.13976 | 1.82910 | 26626 ft | 449 kts | 98° |
| 2026-05-06 16:58 | 51.13639 | 1.89514 | 27209 ft | 453 kts | 98° |
| 2026-05-06 16:59 | 51.13380 | 1.94537 | 27631 ft | 456 kts | 98° |
| 2026-05-06 16:59 | 51.13203 | 1.97944 | 27905 ft | 458 kts | 98° |
| 2026-05-06 16:59 | 51.12938 | 2.03005 | 28295 ft | 461 kts | 98° |
| 2026-05-06 16:59 | 51.12669 | 2.08107 | 28671 ft | 463 kts | 98° |
| 2026-05-06 17:00 | 51.12396 | 2.13231 | 29025 ft | 465 kts | 98° |
| 2026-05-06 17:00 | 51.12120 | 2.18372 | 29361 ft | 468 kts | 98° |
| 2026-05-06 17:00 | 51.11840 | 2.23547 | 29680 ft | 470 kts | 98° |
| 2026-05-06 17:00 | 51.11556 | 2.28739 | 29980 ft | 472 kts | 98° |
| 2026-05-06 17:01 | 51.11269 | 2.33955 | 30264 ft | 474 kts | 98° |
| 2026-05-06 17:01 | 51.10978 | 2.39192 | 30532 ft | 476 kts | 98° |
| 2026-05-06 17:01 | 51.10684 | 2.44447 | 30786 ft | 478 kts | 98° |
| 2026-05-06 17:01 | 51.10387 | 2.49717 | 31023 ft | 479 kts | 98° |
| 2026-05-06 17:02 | 51.10089 | 2.54941 | 31248 ft | 481 kts | 98° |
| 2026-05-06 17:02 | 51.09768 | 2.60234 | 31501 ft | 481 kts | 101° |
| 2026-05-06 17:02 | 51.08973 | 2.65430 | 31702 ft | 476 kts | 114° |
| 2026-05-06 17:02 | 51.07667 | 2.70168 | 31932 ft | 473 kts | 120° |
| 2026-05-06 17:03 | 51.06190 | 2.74834 | 32238 ft | 471 kts | 121° |
| 2026-05-06 17:03 | 51.04689 | 2.79460 | 32541 ft | 470 kts | 121° |
| 2026-05-06 17:03 | 51.03187 | 2.84058 | 32830 ft | 469 kts | 121° |
| 2026-05-06 17:03 | 51.01673 | 2.88656 | 33108 ft | 468 kts | 122° |
| 2026-05-06 17:04 | 51.00152 | 2.93228 | 33378 ft | 467 kts | 122° |
| 2026-05-06 17:04 | 50.98630 | 2.97786 | 33645 ft | 467 kts | 122° |
| 2026-05-06 17:04 | 50.97111 | 3.02322 | 33907 ft | 466 kts | 122° |
| 2026-05-06 17:04 | 50.95589 | 3.06860 | 34163 ft | 466 kts | 122° |
| 2026-05-06 17:05 | 50.94066 | 3.11388 | 34416 ft | 465 kts | 122° |
| 2026-05-06 17:05 | 50.92541 | 3.15913 | 34667 ft | 464 kts | 122° |
| 2026-05-06 17:05 | 50.91018 | 3.20407 | 35066 ft | 459 kts | 122° |
| 2026-05-06 17:05 | 50.89507 | 3.24828 | 35422 ft | 457 kts | 122° |
| 2026-05-06 17:06 | 50.87982 | 3.29321 | 35152 ft | 469 kts | 122° |
| 2026-05-06 17:06 | 50.86422 | 3.33862 | 35348 ft | 466 kts | 122° |
| 2026-05-06 17:06 | 50.84870 | 3.38325 | 35799 ft | 460 kts | 123° |
| 2026-05-06 17:06 | 50.83347 | 3.42791 | 35913 ft | 463 kts | 122° |
| 2026-05-06 17:07 | 50.81824 | 3.47279 | 36080 ft | 464 kts | 122° |
| 2026-05-06 17:07 | 50.78756 | 3.56318 | 36419 ft | 461 kts | 122° |
| 2026-05-06 17:07 | 50.77215 | 3.60793 | 36222 ft | 471 kts | 122° |
| 2026-05-06 17:08 | 50.75658 | 3.65350 | 36400 ft | 469 kts | 122° |
| 2026-05-06 17:08 | 50.74094 | 3.69869 | 36558 ft | 468 kts | 122° |
| 2026-05-06 17:08 | 50.72538 | 3.74371 | 36798 ft | 466 kts | 122° |
| 2026-05-06 17:08 | 50.70997 | 3.78850 | 37077 ft | 463 kts | 122° |
| 2026-05-06 17:09 | 50.69460 | 3.83297 | 36952 ft | 465 kts | 122° |
| 2026-05-06 17:09 | 50.67921 | 3.87747 | 37100 ft | 459 kts | 123° |
| 2026-05-06 17:09 | 50.66376 | 3.92153 | 37050 ft | 460 kts | 123° |
| 2026-05-06 17:10 | 50.63342 | 4.00918 | 37009 ft | 458 kts | 123° |
| 2026-05-06 17:10 | 50.60280 | 4.09701 | 37001 ft | 458 kts | 123° |
| 2026-05-06 17:11 | 50.57207 | 4.18473 | 36999 ft | 458 kts | 123° |
| 2026-05-06 17:11 | 50.54126 | 4.27231 | 36998 ft | 458 kts | 123° |
| 2026-05-06 17:12 | 50.51018 | 4.35965 | 36999 ft | 457 kts | 123° |
| 2026-05-06 17:12 | 50.47910 | 4.44681 | 36999 ft | 457 kts | 123° |
| 2026-05-06 17:13 | 50.44810 | 4.53396 | 36999 ft | 457 kts | 123° |
| 2026-05-06 17:13 | 50.41700 | 4.62107 | 36999 ft | 457 kts | 123° |
| 2026-05-06 17:14 | 50.38588 | 4.70795 | 36999 ft | 457 kts | 123° |
| 2026-05-06 17:14 | 50.35469 | 4.79472 | 36999 ft | 457 kts | 123° |
| 2026-05-06 17:15 | 50.32341 | 4.88142 | 36999 ft | 457 kts | 123° |
| 2026-05-06 17:15 | 50.29207 | 4.96804 | 36999 ft | 457 kts | 123° |
| 2026-05-06 17:16 | 50.26068 | 5.05447 | 36999 ft | 457 kts | 123° |
| 2026-05-06 17:16 | 50.22943 | 5.14026 | 36999 ft | 457 kts | 123° |
| 2026-05-06 17:17 | 50.19791 | 5.22648 | 36999 ft | 457 kts | 123° |
| 2026-05-06 17:17 | 50.16630 | 5.31266 | 36999 ft | 457 kts | 123° |
| 2026-05-06 17:18 | 50.13466 | 5.39862 | 36999 ft | 457 kts | 123° |
| 2026-05-06 17:18 | 50.10297 | 5.48445 | 36999 ft | 457 kts | 123° |
| 2026-05-06 17:19 | 50.07120 | 5.57019 | 36999 ft | 457 kts | 123° |
| 2026-05-06 17:19 | 50.03939 | 5.65578 | 36999 ft | 457 kts | 124° |
| 2026-05-06 17:20 | 50.00746 | 5.74141 | 36999 ft | 457 kts | 124° |
| 2026-05-06 17:20 | 49.97552 | 5.82677 | 36999 ft | 457 kts | 124° |
| 2026-05-06 17:21 | 49.94370 | 5.91153 | 36999 ft | 457 kts | 124° |
| 2026-05-06 17:21 | 49.91161 | 5.99672 | 36999 ft | 457 kts | 124° |
| 2026-05-06 17:22 | 49.87685 | 6.08869 | 36999 ft | 457 kts | 124° |
| 2026-05-06 17:22 | 49.75572 | 6.44013 | 37011 ft | 458 kts | 121° |
| 2026-05-06 17:23 | 49.63645 | 6.78733 | 37291 ft | 449 kts | 122° |
| 2026-05-06 17:23 | 49.61322 | 6.85435 | 36900 ft | 459 kts | 122° |
| 2026-05-06 17:23 | 49.57056 | 6.97723 | 37005 ft | 456 kts | 122° |
| 2026-05-06 17:24 | 49.45960 | 7.29393 | 37036 ft | 456 kts | 122° |
| 2026-05-06 17:24 | 49.42932 | 7.37968 | 37003 ft | 457 kts | 122° |
| 2026-05-06 17:25 | 49.39894 | 7.46545 | 37000 ft | 457 kts | 122° |
| 2026-05-06 17:25 | 49.29277 | 7.76292 | 36999 ft | 458 kts | 122° |
| 2026-05-06 17:26 | 49.16950 | 8.10397 | 36999 ft | 458 kts | 123° |
| 2026-05-06 17:26 | 49.04525 | 8.44296 | 36997 ft | 458 kts | 123° |
| 2026-05-06 17:26 | 48.98823 | 8.57844 | 36919 ft | 445 kts | 147° |
| 2026-05-06 17:27 | 48.96310 | 8.60570 | 36960 ft | 445 kts | 146° |
| 2026-05-06 17:27 | 48.93868 | 8.63506 | 36813 ft | 448 kts | 146° |
| 2026-05-06 17:27 | 48.91373 | 8.66325 | 36846 ft | 446 kts | 148° |
| 2026-05-06 17:28 | 48.86323 | 8.71686 | 36994 ft | 442 kts | 149° |
| 2026-05-06 17:28 | 48.80393 | 8.77802 | 36984 ft | 442 kts | 150° |
| 2026-05-06 17:29 | 48.65648 | 8.92793 | 37013 ft | 442 kts | 150° |
| 2026-05-06 17:29 | 48.60533 | 8.97969 | 37002 ft | 442 kts | 150° |
| 2026-05-06 17:30 | 48.41274 | 9.17344 | 37000 ft | 443 kts | 150° |
| 2026-05-06 17:30 | 48.26132 | 9.32452 | 37000 ft | 443 kts | 150° |
| 2026-05-06 17:31 | 48.21028 | 9.37519 | 36999 ft | 443 kts | 150° |
| 2026-05-06 17:31 | 48.15888 | 9.42610 | 36999 ft | 443 kts | 150° |
| 2026-05-06 17:32 | 48.10746 | 9.47691 | 36999 ft | 443 kts | 150° |
| 2026-05-06 17:32 | 48.05598 | 9.52765 | 36999 ft | 443 kts | 150° |
| 2026-05-06 17:33 | 48.00473 | 9.57879 | 37000 ft | 444 kts | 148° |
| 2026-05-06 17:33 | 47.95480 | 9.63305 | 36999 ft | 444 kts | 147° |
| 2026-05-06 17:34 | 47.90483 | 9.68733 | 36999 ft | 444 kts | 148° |
| 2026-05-06 17:34 | 47.85478 | 9.74141 | 36999 ft | 444 kts | 148° |
| 2026-05-06 17:35 | 47.80472 | 9.79525 | 36999 ft | 444 kts | 148° |
| 2026-05-06 17:35 | 47.75455 | 9.84904 | 36999 ft | 444 kts | 148° |
| 2026-05-06 17:36 | 47.67926 | 9.92950 | 36999 ft | 444 kts | 148° |
| 2026-05-06 17:36 | 47.62909 | 9.98297 | 36999 ft | 444 kts | 148° |
| 2026-05-06 17:37 | 47.57886 | 10.03637 | 36999 ft | 444 kts | 148° |
| 2026-05-06 17:37 | 47.52864 | 10.08962 | 36999 ft | 444 kts | 148° |
| 2026-05-06 17:38 | 47.47833 | 10.14285 | 36999 ft | 444 kts | 148° |
| 2026-05-06 17:38 | 47.42772 | 10.19506 | 37001 ft | 443 kts | 151° |
| 2026-05-06 17:39 | 47.37533 | 10.24270 | 37000 ft | 442 kts | 152° |
| 2026-05-06 17:39 | 47.32289 | 10.29020 | 36999 ft | 442 kts | 152° |
| 2026-05-06 17:40 | 47.27927 | 10.32955 | 36999 ft | 442 kts | 152° |
| 2026-05-06 17:40 | 47.25293 | 10.35327 | 36539 ft | 442 kts | 152° |
| 2026-05-06 17:40 | 47.22686 | 10.37674 | 36003 ft | 437 kts | 152° |
| 2026-05-06 17:41 | 47.20090 | 10.40005 | 35480 ft | 440 kts | 152° |
| 2026-05-06 17:41 | 47.17477 | 10.42349 | 34953 ft | 440 kts | 152° |
| 2026-05-06 17:41 | 47.14857 | 10.44698 | 34425 ft | 441 kts | 152° |
| 2026-05-06 17:41 | 47.12235 | 10.47046 | 33897 ft | 442 kts | 152° |
| 2026-05-06 17:42 | 47.09608 | 10.49395 | 33369 ft | 443 kts | 152° |
| 2026-05-06 17:42 | 47.06948 | 10.51679 | 32854 ft | 444 kts | 158° |
| 2026-05-06 17:42 | 47.04088 | 10.53372 | 32344 ft | 442 kts | 164° |
| 2026-05-06 17:42 | 47.01168 | 10.54791 | 31781 ft | 442 kts | 165° |
| 2026-05-06 17:43 | 46.98235 | 10.56157 | 31245 ft | 442 kts | 166° |
| 2026-05-06 17:43 | 46.95295 | 10.57514 | 30713 ft | 443 kts | 166° |
| 2026-05-06 17:43 | 46.92349 | 10.58867 | 30182 ft | 443 kts | 166° |
| 2026-05-06 17:43 | 46.89405 | 10.60214 | 29651 ft | 445 kts | 166° |
| 2026-05-06 17:44 | 46.86445 | 10.61562 | 29119 ft | 446 kts | 166° |
| 2026-05-06 17:44 | 46.83475 | 10.62910 | 28747 ft | 448 kts | 166° |
| 2026-05-06 17:44 | 46.80502 | 10.64255 | 28443 ft | 446 kts | 166° |
| 2026-05-06 17:44 | 46.77540 | 10.65590 | 28133 ft | 444 kts | 166° |
| 2026-05-06 17:45 | 46.74597 | 10.66911 | 27825 ft | 441 kts | 166° |
| 2026-05-06 17:45 | 46.71657 | 10.68163 | 27540 ft | 439 kts | 169° |
| 2026-05-06 17:45 | 46.68680 | 10.69156 | 27220 ft | 436 kts | 171° |
| 2026-05-06 17:45 | 46.65729 | 10.70106 | 26911 ft | 434 kts | 171° |
| 2026-05-06 17:46 | 46.62791 | 10.71052 | 26608 ft | 431 kts | 171° |
| 2026-05-06 17:46 | 46.59869 | 10.71998 | 26308 ft | 429 kts | 171° |
| 2026-05-06 17:46 | 46.56961 | 10.72945 | 26009 ft | 427 kts | 171° |
| 2026-05-06 17:46 | 46.54063 | 10.73891 | 25711 ft | 425 kts | 171° |
| 2026-05-06 17:47 | 46.51181 | 10.74830 | 25415 ft | 423 kts | 171° |
| 2026-05-06 17:47 | 46.48314 | 10.75763 | 25121 ft | 421 kts | 171° |
| 2026-05-06 17:47 | 46.45460 | 10.76690 | 24809 ft | 420 kts | 171° |
| 2026-05-06 17:47 | 46.42617 | 10.77612 | 24414 ft | 417 kts | 171° |
| 2026-05-06 17:48 | 46.39805 | 10.78531 | 24525 ft | 413 kts | 171° |
| 2026-05-06 17:48 | 46.36968 | 10.79470 | 24402 ft | 422 kts | 171° |
| 2026-05-06 17:48 | 46.34115 | 10.80376 | 24050 ft | 417 kts | 171° |
| 2026-05-06 17:48 | 46.31293 | 10.81278 | 23606 ft | 413 kts | 171° |
| 2026-05-06 17:49 | 46.28504 | 10.82184 | 23252 ft | 412 kts | 171° |
| 2026-05-06 17:49 | 46.25716 | 10.83080 | 22907 ft | 407 kts | 171° |
| 2026-05-06 17:49 | 46.22952 | 10.83986 | 22686 ft | 409 kts | 171° |
| 2026-05-06 17:49 | 46.20225 | 10.84861 | 22317 ft | 404 kts | 171° |
| 2026-05-06 17:50 | 46.17479 | 10.85748 | 22085 ft | 405 kts | 171° |
| 2026-05-06 17:50 | 46.14742 | 10.86616 | 21875 ft | 404 kts | 171° |
| 2026-05-06 17:50 | 46.12013 | 10.87485 | 21465 ft | 399 kts | 171° |
| 2026-05-06 17:50 | 46.09306 | 10.88336 | 21311 ft | 400 kts | 171° |
| 2026-05-06 17:51 | 46.06594 | 10.89192 | 20983 ft | 397 kts | 171° |
| 2026-05-06 17:51 | 46.03915 | 10.90058 | 20780 ft | 394 kts | 170° |
| 2026-05-06 17:51 | 46.01230 | 10.90941 | 20354 ft | 393 kts | 171° |
| 2026-05-06 17:51 | 45.98580 | 10.91796 | 20031 ft | 389 kts | 171° |
| 2026-05-06 17:52 | 45.95940 | 10.92639 | 19748 ft | 387 kts | 171° |
| 2026-05-06 17:52 | 45.93317 | 10.93477 | 19475 ft | 386 kts | 171° |
| 2026-05-06 17:52 | 45.90700 | 10.94311 | 19205 ft | 384 kts | 171° |
| 2026-05-06 17:52 | 45.88098 | 10.95140 | 18938 ft | 382 kts | 171° |
| 2026-05-06 17:53 | 45.85505 | 10.95965 | 18671 ft | 381 kts | 171° |
| 2026-05-06 17:53 | 45.82922 | 10.96787 | 18406 ft | 379 kts | 171° |
| 2026-05-06 17:53 | 45.80350 | 10.97604 | 18142 ft | 378 kts | 171° |
| 2026-05-06 17:53 | 45.77787 | 10.98417 | 17879 ft | 376 kts | 171° |
| 2026-05-06 17:54 | 45.75237 | 10.99224 | 17712 ft | 377 kts | 171° |
| 2026-05-06 17:54 | 45.72678 | 11.00046 | 17512 ft | 376 kts | 171° |
| 2026-05-06 17:54 | 45.70130 | 11.00855 | 17204 ft | 374 kts | 171° |
| 2026-05-06 17:54 | 45.67610 | 11.01731 | 16859 ft | 372 kts | 166° |
| 2026-05-06 17:55 | 45.65247 | 11.03301 | 16505 ft | 377 kts | 151° |
| 2026-05-06 17:55 | 45.63255 | 11.05760 | 16232 ft | 384 kts | 135° |
| 2026-05-06 17:55 | 45.61718 | 11.08908 | 16172 ft | 392 kts | 127° |
| 2026-05-06 17:55 | 45.60230 | 11.12172 | 15828 ft | 390 kts | 127° |
| 2026-05-06 17:56 | 45.58775 | 11.15405 | 15517 ft | 385 kts | 127° |
| 2026-05-06 17:56 | 45.57318 | 11.18605 | 15279 ft | 383 kts | 127° |
| 2026-05-06 17:56 | 45.55864 | 11.21814 | 15078 ft | 386 kts | 127° |
| 2026-05-06 17:56 | 45.54412 | 11.25008 | 14765 ft | 382 kts | 127° |
| 2026-05-06 17:57 | 45.52997 | 11.28203 | 14428 ft | 380 kts | 127° |
| 2026-05-06 17:57 | 45.51589 | 11.31322 | 14220 ft | 378 kts | 127° |
| 2026-05-06 17:57 | 45.50155 | 11.34483 | 13949 ft | 379 kts | 127° |
| 2026-05-06 17:57 | 45.48726 | 11.37620 | 13688 ft | 376 kts | 127° |
| 2026-05-06 17:58 | 45.47305 | 11.40734 | 13478 ft | 374 kts | 128° |
| 2026-05-06 17:58 | 45.45888 | 11.43831 | 13115 ft | 372 kts | 127° |
| 2026-05-06 17:58 | 45.44481 | 11.46918 | 12826 ft | 371 kts | 127° |
| 2026-05-06 17:58 | 45.43080 | 11.49985 | 12560 ft | 368 kts | 129° |
| 2026-05-06 17:59 | 45.41471 | 11.52798 | 12322 ft | 366 kts | 136° |
| 2026-05-06 17:59 | 45.39789 | 11.55483 | 12053 ft | 362 kts | 136° |
| 2026-05-06 17:59 | 45.38106 | 11.58141 | 11798 ft | 360 kts | 136° |
| 2026-05-06 17:59 | 45.36478 | 11.60780 | 11582 ft | 351 kts | 133° |
| 2026-05-06 18:00 | 45.35216 | 11.63722 | 11203 ft | 348 kts | 118° |
| 2026-05-06 18:00 | 45.34575 | 11.66987 | 10986 ft | 341 kts | 100° |
| 2026-05-06 18:00 | 45.34577 | 11.70294 | 10910 ft | 326 kts | 90° |
| 2026-05-06 18:00 | 45.34701 | 11.73464 | 10580 ft | 318 kts | 90° |
| 2026-05-06 18:01 | 45.34830 | 11.76540 | 10382 ft | 306 kts | 90° |
| 2026-05-06 18:01 | 45.34958 | 11.79534 | 10007 ft | 302 kts | 91° |
| 2026-05-06 18:01 | 45.34895 | 11.82440 | 9858 ft | 289 kts | 97° |
| 2026-05-06 18:01 | 45.34264 | 11.85085 | 9621 ft | 281 kts | 120° |
| 2026-05-06 18:02 | 45.33081 | 11.87217 | 9456 ft | 270 kts | 130° |
| 2026-05-06 18:02 | 45.31833 | 11.89179 | 9200 ft | 264 kts | 132° |
| 2026-05-06 18:02 | 45.30364 | 11.90613 | 9025 ft | 255 kts | 162° |
| 2026-05-06 18:02 | 45.28626 | 11.90688 | 8641 ft | 253 kts | 198° |
| 2026-05-06 18:03 | 45.27100 | 11.89533 | 8370 ft | 247 kts | 219° |
| 2026-05-06 18:03 | 45.25805 | 11.87966 | 8109 ft | 242 kts | 222° |
| 2026-05-06 18:03 | 45.24570 | 11.86391 | 8004 ft | 236 kts | 223° |
| 2026-05-06 18:03 | 45.23355 | 11.84834 | 7978 ft | 236 kts | 223° |
| 2026-05-06 18:04 | 45.22128 | 11.83268 | 7925 ft | 238 kts | 223° |
| 2026-05-06 18:04 | 45.20895 | 11.81700 | 7871 ft | 238 kts | 223° |
| 2026-05-06 18:04 | 45.19662 | 11.80137 | 7799 ft | 238 kts | 223° |
| 2026-05-06 18:04 | 45.18429 | 11.78583 | 7735 ft | 237 kts | 222° |
| 2026-05-06 18:05 | 45.17192 | 11.77031 | 7671 ft | 237 kts | 222° |
| 2026-05-06 18:05 | 45.15953 | 11.75478 | 7601 ft | 237 kts | 222° |
| 2026-05-06 18:05 | 45.14726 | 11.73931 | 7539 ft | 236 kts | 223° |
| 2026-05-06 18:05 | 45.13490 | 11.72395 | 7417 ft | 236 kts | 222° |
| 2026-05-06 18:06 | 45.12185 | 11.71001 | 7233 ft | 236 kts | 205° |
| 2026-05-06 18:06 | 45.10590 | 11.70754 | 7074 ft | 233 kts | 165° |
| 2026-05-06 18:06 | 45.09183 | 11.71848 | 6903 ft | 235 kts | 136° |
| 2026-05-06 18:06 | 45.08065 | 11.73505 | 6898 ft | 231 kts | 129° |
| 2026-05-06 18:07 | 45.07009 | 11.75287 | 6765 ft | 238 kts | 123° |
| 2026-05-06 18:07 | 45.06440 | 11.77447 | 6531 ft | 233 kts | 89° |
| 2026-05-06 18:07 | 45.06835 | 11.79613 | 6220 ft | 228 kts | 56° |
| 2026-05-06 18:07 | 45.07886 | 11.81215 | 6175 ft | 219 kts | 41° |
| 2026-05-06 18:08 | 45.09045 | 11.82653 | 6120 ft | 226 kts | 39° |
| 2026-05-06 18:08 | 45.10252 | 11.84116 | 5917 ft | 228 kts | 40° |
| 2026-05-06 18:08 | 45.11435 | 11.85544 | 5839 ft | 221 kts | 39° |
| 2026-05-06 18:08 | 45.12610 | 11.86952 | 5779 ft | 221 kts | 40° |
| 2026-05-06 18:09 | 45.13764 | 11.88400 | 5620 ft | 221 kts | 41° |
| 2026-05-06 18:09 | 45.14892 | 11.89863 | 5492 ft | 220 kts | 41° |
| 2026-05-06 18:09 | 45.16022 | 11.91273 | 5358 ft | 220 kts | 40° |
| 2026-05-06 18:09 | 45.17157 | 11.92711 | 5240 ft | 217 kts | 41° |
| 2026-05-06 18:10 | 45.18286 | 11.94144 | 5184 ft | 219 kts | 41° |
| 2026-05-06 18:10 | 45.19425 | 11.95586 | 5124 ft | 220 kts | 40° |
| 2026-05-06 18:10 | 45.20570 | 11.97032 | 5064 ft | 221 kts | 40° |
| 2026-05-06 18:10 | 45.21716 | 11.98479 | 4993 ft | 219 kts | 40° |
| 2026-05-06 18:11 | 45.22853 | 11.99911 | 4924 ft | 218 kts | 40° |
| 2026-05-06 18:11 | 45.23619 | 12.00876 | 4887 ft | 218 kts | 41° |
| 2026-05-06 18:11 | 45.25118 | 12.02770 | 4795 ft | 218 kts | 40° |
| 2026-05-06 18:11 | 45.26249 | 12.04199 | 4732 ft | 217 kts | 41° |
| 2026-05-06 18:12 | 45.27353 | 12.05606 | 4663 ft | 217 kts | 41° |
| 2026-05-06 18:12 | 45.28498 | 12.07064 | 4717 ft | 217 kts | 41° |
| 2026-05-06 18:12 | 45.29624 | 12.08499 | 4663 ft | 216 kts | 41° |
| 2026-05-06 18:12 | 45.30738 | 12.09917 | 4663 ft | 216 kts | 41° |
| 2026-05-06 18:13 | 45.31882 | 12.11372 | 4501 ft | 224 kts | 41° |
| 2026-05-06 18:13 | 45.33039 | 12.12833 | 4260 ft | 219 kts | 41° |
| 2026-05-06 18:13 | 45.34107 | 12.14189 | 4057 ft | 191 kts | 41° |
| 2026-05-06 18:13 | 45.35054 | 12.15400 | 3698 ft | 176 kts | 40° |
| 2026-05-06 18:14 | 45.35913 | 12.16492 | 3461 ft | 154 kts | 40° |
| 2026-05-06 18:14 | 45.36688 | 12.17481 | 3142 ft | 143 kts | 41° |
| 2026-05-06 18:14 | 45.37399 | 12.18394 | 2991 ft | 135 kts | 40° |
| 2026-05-06 18:14 | 45.38109 | 12.19295 | 2858 ft | 136 kts | 40° |
| 2026-05-06 18:15 | 45.38819 | 12.20200 | 2701 ft | 138 kts | 41° |
| 2026-05-06 18:15 | 45.39524 | 12.21113 | 2524 ft | 138 kts | 41° |
| 2026-05-06 18:15 | 45.40224 | 12.22034 | 2358 ft | 134 kts | 41° |
| 2026-05-06 18:15 | 45.40919 | 12.22942 | 2154 ft | 135 kts | 41° |
| 2026-05-06 18:16 | 45.41613 | 12.23836 | 1972 ft | 134 kts | 40° |
| 2026-05-06 18:16 | 45.42303 | 12.24726 | 1802 ft | 135 kts | 40° |
| 2026-05-06 18:16 | 45.43005 | 12.25616 | 1629 ft | 134 kts | 40° |
| 2026-05-06 18:16 | 45.43701 | 12.26513 | 1429 ft | 135 kts | 40° |
| 2026-05-06 18:17 | 45.44391 | 12.27390 | 1299 ft | 132 kts | 40° |
| 2026-05-06 18:17 | 45.45103 | 12.28272 | 1172 ft | 137 kts | 40° |
| 2026-05-06 18:17 | 45.45812 | 12.29165 | 808 ft | 135 kts | 40° |
| 2026-05-06 18:17 | 45.46481 | 12.30038 | 783 ft | 133 kts | 41° |
| 2026-05-06 18:18 | 45.47188 | 12.30929 | 787 ft | 140 kts | 40° |
| 2026-05-06 18:18 | 45.47924 | 12.31879 | 466 ft | 139 kts | 40° |
| 2026-05-06 18:18 | 45.48620 | 12.32764 | 251 ft | 132 kts | 40° |
| 2026-05-06 18:18 | 45.49294 | 12.33632 | 86 ft | 131 kts | 40° |
| 2026-05-06 18:19 | 45.49951 | 12.34473 | 17 ft | 116 kts | 41° |
| 2026-05-06 18:19 | 45.50374 | 12.35007 | 16 ft | 46 kts | 41° |
| 2026-05-06 18:19 | 45.50474 | 12.35137 | 16 ft | 12 kts | 43° |
| 2026-05-06 18:19 | 45.50562 | 12.35247 | 16 ft | 22 kts | 41° |
| 2026-05-06 18:20 | 45.50670 | 12.35370 | 16 ft | 18 kts | 27° |
| 2026-05-06 18:20 | 45.50779 | 12.35413 | 16 ft | 15 kts | 8° |
| 2026-05-06 18:20 | 45.50803 | 12.35417 | 16 ft | 0 kts | 8° |
| 2026-05-06 18:21 | 45.50807 | 12.35418 | 16 ft | 3 kts | 8° |
| 2026-05-06 18:21 | 45.50842 | 12.35426 | 16 ft | 9 kts | 9° |
| 2026-05-06 18:21 | 45.50908 | 12.35432 | 16 ft | 10 kts | 337° |
| 2026-05-06 18:22 | 45.50940 | 12.35399 | 16 ft | 8 kts | 316° |
| 2026-05-06 18:22 | 45.50971 | 12.35315 | 16 ft | 12 kts | 270° |
| 2026-05-06 18:22 | 45.50944 | 12.35193 | 16 ft | 13 kts | 230° |
| 2026-05-06 18:22 | 45.50873 | 12.35096 | 16 ft | 15 kts | 218° |
| 2026-05-06 18:23 | 45.50794 | 12.34998 | 16 ft | 15 kts | 223° |
| 2026-05-06 18:23 | 45.50715 | 12.34893 | 16 ft | 16 kts | 223° |
| 2026-05-06 18:23 | 45.50633 | 12.34791 | 16 ft | 16 kts | 222° |
| 2026-05-06 18:23 | 45.50552 | 12.34685 | 16 ft | 16 kts | 222° |
| 2026-05-06 18:24 | 45.50468 | 12.34581 | 16 ft | 16 kts | 220° |
| 2026-05-06 18:24 | 45.50384 | 12.34472 | 16 ft | 16 kts | 222° |
| 2026-05-06 18:24 | 45.50299 | 12.34363 | 16 ft | 17 kts | 222° |
| 2026-05-06 18:24 | 45.50212 | 12.34252 | 16 ft | 17 kts | 224° |
| 2026-05-06 18:25 | 45.50187 | 12.34217 | 16 ft | 3 kts | 219° |
| 2026-05-06 18:25 | 45.50170 | 12.34215 | 16 ft | 6 kts | 165° |
| 2026-05-06 18:25 | 45.50154 | 12.34239 | 16 ft | 2 kts | 105° |
| 2026-05-06 18:25 | 45.50152 | 12.34301 | 16 ft | 5 kts | 89° |
| 2026-05-06 18:26 | 45.50165 | 12.34339 | 16 ft | 7 kts | 44° |
| 2026-05-06 18:26 | 45.50253 | 12.34354 | 16 ft | 12 kts | 352° |
| 2026-05-06 18:26 | 45.50313 | 12.34313 | 16 ft | 9 kts | 324° |
| 2026-05-06 18:26 | 45.50338 | 12.34265 | 16 ft | 5 kts | 291° |
| 2026-05-06 18:27 | 45.50350 | 12.34216 | 16 ft | 4 kts | 290° |
| 2026-05-06 18:27 | 45.50355 | 12.34199 | 16 ft | 0 kts | 291° |